sensor_id;sensor_type;location;lat;lon;timestamp;temperature;humidity
70593;DHT22;58294;42.988;20.338;2022-11-03T00:01:37;256.20;1433.60
70593;DHT22;58294;42.988;20.338;2022-11-03T00:04:05;256.20;1408.00
70593;DHT22;58294;42.988;20.338;2022-11-03T00:06:31;256.10;1433.60
70593;DHT22;58294;42.988;20.338;2022-11-03T00:08:58;256.10;1484.80
70593;DHT22;58294;42.988;20.338;2022-11-03T00:11:24;256.00;1433.60
70593;DHT22;58294;42.988;20.338;2022-11-03T00:13:50;231.30;1433.60
70593;DHT22;58294;42.988;20.338;2022-11-03T00:16:16;231.30;1459.20
70593;DHT22;58294;42.988;20.338;2022-11-03T00:18:42;256.00;1433.60
70593;DHT22;58294;42.988;20.338;2022-11-03T00:21:10;231.30;1433.60
70593;DHT22;58294;42.988;20.338;2022-11-03T00:23:39;231.30;1459.20
70593;DHT22;58294;42.988;20.338;2022-11-03T00:26:08;231.30;1433.60
70593;DHT22;58294;42.988;20.338;2022-11-03T00:28:35;231.20;1459.20
70593;DHT22;58294;42.988;20.338;2022-11-03T00:31:06;231.10;1459.20
70593;DHT22;58294;42.988;20.338;2022-11-03T00:33:32;231.10;1484.80
70593;DHT22;58294;42.988;20.338;2022-11-03T00:35:59;231.00;1459.20
70593;DHT22;58294;42.988;20.338;2022-11-03T00:38:26;231.00;1484.80
70593;DHT22;58294;42.988;20.338;2022-11-03T00:40:57;231.00;1459.20
70593;DHT22;58294;42.988;20.338;2022-11-03T00:43:24;231.00;1459.20
70593;DHT22;58294;42.988;20.338;2022-11-03T00:45:50;231.00;1459.20
70593;DHT22;58294;42.988;20.338;2022-11-03T00:48:16;230.90;1484.80
70593;DHT22;58294;42.988;20.338;2022-11-03T00:53:29;230.70;1484.80
70593;DHT22;58294;42.988;20.338;2022-11-03T01:03:14;230.90;1484.80
70593;DHT22;58294;42.988;20.338;2022-11-03T01:05:43;230.70;1510.40
70593;DHT22;58294;42.988;20.338;2022-11-03T01:08:34;230.70;1536.00
70593;DHT22;58294;42.988;20.338;2022-11-03T02:00:26;230.80;1484.80
70593;DHT22;58294;42.988;20.338;2022-11-03T02:02:52;230.60;1561.60
70593;DHT22;58294;42.988;20.338;2022-11-03T02:05:20;230.50;1536.00
70593;DHT22;58294;42.988;20.338;2022-11-03T02:08:08;230.50;1536.00
70593;DHT22;58294;42.988;20.338;2022-11-03T02:17:59;230.50;1561.60
70593;DHT22;58294;42.988;20.338;2022-11-03T02:20:28;205.70;1612.80
70593;DHT22;58294;42.988;20.338;2022-11-03T02:25:57;205.70;1561.60
70593;DHT22;58294;42.988;20.338;2022-11-03T02:28:26;205.50;1587.20
70593;DHT22;58294;42.988;20.338;2022-11-03T02:36:25;205.40;1561.60
70593;DHT22;58294;42.988;20.338;2022-11-03T02:39:10;205.40;1587.20
70593;DHT22;58294;42.988;20.338;2022-11-03T02:41:38;205.30;1561.60
70593;DHT22;58294;42.988;20.338;2022-11-03T02:44:10;205.40;1561.60
70593;DHT22;58294;42.988;20.338;2022-11-03T02:46:37;205.30;1561.60
70593;DHT22;58294;42.988;20.338;2022-11-03T02:49:03;205.30;1561.60
70593;DHT22;58294;42.988;20.338;2022-11-03T02:51:29;205.30;1587.20
70593;DHT22;58294;42.988;20.338;2022-11-03T02:56:24;205.30;1612.80
70593;DHT22;58294;42.988;20.338;2022-11-03T02:59:07;205.30;1587.20
70593;DHT22;58294;42.988;20.338;2022-11-03T03:11:50;205.30;1561.60
70593;DHT22;58294;42.988;20.338;2022-11-03T03:25:14;205.10;1587.20
70593;DHT22;58294;42.988;20.338;2022-11-03T03:27:54;205.00;1612.80
70593;DHT22;58294;42.988;20.338;2022-11-03T03:30:22;205.20;1587.20
70593;DHT22;58294;42.988;20.338;2022-11-03T03:32:50;205.00;1612.80
70593;DHT22;58294;42.988;20.338;2022-11-03T03:35:20;205.00;1638.40
70593;DHT22;58294;42.988;20.338;2022-11-03T04:02:21;180.00;1612.80
70593;DHT22;58294;42.988;20.338;2022-11-03T04:04:47;179.80;1740.80
70593;DHT22;58294;42.988;20.338;2022-11-03T04:07:13;179.80;1664.00
70593;DHT22;58294;42.988;20.338;2022-11-03T04:09:57;179.80;1664.00
70593;DHT22;58294;42.988;20.338;2022-11-03T04:12:23;179.80;1664.00
70593;DHT22;58294;42.988;20.338;2022-11-03T04:15:16;179.80;1664.00
70593;DHT22;58294;42.988;20.338;2022-11-03T04:18:00;179.80;1664.00
70593;DHT22;58294;42.988;20.338;2022-11-03T04:20:44;179.70;1664.00
70593;DHT22;58294;42.988;20.338;2022-11-03T04:23:29;179.60;1664.00
70593;DHT22;58294;42.988;20.338;2022-11-03T04:25:55;179.60;1664.00
70593;DHT22;58294;42.988;20.338;2022-11-03T04:28:23;179.50;1664.00
70593;DHT22;58294;42.988;20.338;2022-11-03T04:30:49;179.50;1689.60
70593;DHT22;58294;42.988;20.338;2022-11-03T04:33:16;179.50;1689.60
70593;DHT22;58294;42.988;20.338;2022-11-03T04:35:43;179.50;1715.20
70593;DHT22;58294;42.988;20.338;2022-11-03T04:38:20;179.50;1715.20
70593;DHT22;58294;42.988;20.338;2022-11-03T04:40:56;179.50;1689.60
70593;DHT22;58294;42.988;20.338;2022-11-03T04:43:32;179.50;1689.60
70593;DHT22;58294;42.988;20.338;2022-11-03T04:45:58;179.50;1715.20
70593;DHT22;58294;42.988;20.338;2022-11-03T04:48:26;179.50;1689.60
70593;DHT22;58294;42.988;20.338;2022-11-03T04:50:56;179.50;1689.60
70593;DHT22;58294;42.988;20.338;2022-11-03T04:53:23;179.40;1689.60
70593;DHT22;58294;42.988;20.338;2022-11-03T04:55:53;179.40;1715.20
70593;DHT22;58294;42.988;20.338;2022-11-03T04:58:27;179.40;1715.20
70593;DHT22;58294;42.988;20.338;2022-11-03T05:00:56;179.40;1715.20
70593;DHT22;58294;42.988;20.338;2022-11-03T05:03:29;179.50;1740.80
70593;DHT22;58294;42.988;20.338;2022-11-03T05:05:56;179.50;1715.20
70593;DHT22;58294;42.988;20.338;2022-11-03T05:08:22;179.50;1715.20
70593;DHT22;58294;42.988;20.338;2022-11-03T05:10:48;179.50;1715.20
70593;DHT22;58294;42.988;20.338;2022-11-03T05:15:43;179.60;1689.60
70593;DHT22;58294;42.988;20.338;2022-11-03T05:20:51;179.50;1689.60
70593;DHT22;58294;42.988;20.338;2022-11-03T05:23:18;179.50;1689.60
70593;DHT22;58294;42.988;20.338;2022-11-03T05:25:46;179.50;1740.80
70593;DHT22;58294;42.988;20.338;2022-11-03T05:30:41;179.50;1740.80
70593;DHT22;58294;42.988;20.338;2022-11-03T05:33:30;179.50;1740.80
70593;DHT22;58294;42.988;20.338;2022-11-03T05:35:57;179.50;1740.80
70593;DHT22;58294;42.988;20.338;2022-11-03T05:38:30;179.50;1766.40
70593;DHT22;58294;42.988;20.338;2022-11-03T05:40:58;179.60;1766.40
70593;DHT22;58294;42.988;20.338;2022-11-03T05:43:25;179.60;1740.80
70593;DHT22;58294;42.988;20.338;2022-11-03T05:45:56;179.60;1740.80
70593;DHT22;58294;42.988;20.338;2022-11-03T05:48:38;179.70;1740.80
70593;DHT22;58294;42.988;20.338;2022-11-03T05:51:21;179.70;1740.80
70593;DHT22;58294;42.988;20.338;2022-11-03T05:53:52;179.70;1740.80
70593;DHT22;58294;42.988;20.338;2022-11-03T05:56:21;179.80;1740.80
70593;DHT22;58294;42.988;20.338;2022-11-03T05:58:50;179.80;1766.40
70593;DHT22;58294;42.988;20.338;2022-11-03T06:01:33;179.90;1766.40
70593;DHT22;58294;42.988;20.338;2022-11-03T06:04:00;180.00;1766.40
70593;DHT22;58294;42.988;20.338;2022-11-03T06:06:32;180.10;1766.40
70593;DHT22;58294;42.988;20.338;2022-11-03T06:09:02;204.80;1740.80
70593;DHT22;58294;42.988;20.338;2022-11-03T06:11:37;204.80;1766.40
70593;DHT22;58294;42.988;20.338;2022-11-03T06:14:21;204.80;1740.80
70593;DHT22;58294;42.988;20.338;2022-11-03T06:17:05;204.80;1792.00
70593;DHT22;58294;42.988;20.338;2022-11-03T06:22:15;204.80;1766.40
70593;DHT22;58294;42.988;20.338;2022-11-03T06:24:43;204.90;1766.40
70593;DHT22;58294;42.988;20.338;2022-11-03T06:27:15;204.90;1740.80
70593;DHT22;58294;42.988;20.338;2022-11-03T06:29:48;204.90;1740.80
70593;DHT22;58294;42.988;20.338;2022-11-03T06:32:14;205.00;1792.00
70593;DHT22;58294;42.988;20.338;2022-11-03T06:34:45;205.00;1817.60
70593;DHT22;58294;42.988;20.338;2022-11-03T06:37:19;205.10;1792.00
70593;DHT22;58294;42.988;20.338;2022-11-03T06:39:46;205.20;1792.00
70593;DHT22;58294;42.988;20.338;2022-11-03T06:42:18;205.30;1792.00
70593;DHT22;58294;42.988;20.338;2022-11-03T06:44:49;205.40;1792.00
70593;DHT22;58294;42.988;20.338;2022-11-03T06:47:23;205.50;1792.00
70593;DHT22;58294;42.988;20.338;2022-11-03T06:49:56;205.60;1792.00
70593;DHT22;58294;42.988;20.338;2022-11-03T06:52:34;205.70;1817.60
70593;DHT22;58294;42.988;20.338;2022-11-03T06:57:37;230.60;1868.80
70593;DHT22;58294;42.988;20.338;2022-11-03T07:00:28;230.70;1843.20
70593;DHT22;58294;42.988;20.338;2022-11-03T07:05:31;231.00;1817.60
70593;DHT22;58294;42.988;20.338;2022-11-03T07:08:30;231.20;1766.40
70593;DHT22;58294;42.988;20.338;2022-11-03T07:13:37;231.30;1792.00
70593;DHT22;58294;42.988;20.338;2022-11-03T07:16:03;256.00;1792.00
70593;DHT22;58294;42.988;20.338;2022-11-03T07:18:37;256.20;1766.40
70593;DHT22;58294;42.988;20.338;2022-11-03T07:21:23;256.30;1766.40
70593;DHT22;58294;42.988;20.338;2022-11-03T07:23:49;256.50;1766.40
70593;DHT22;58294;42.988;20.338;2022-11-03T07:26:15;256.60;1766.40
70593;DHT22;58294;42.988;20.338;2022-11-03T07:28:41;256.60;1740.80
70593;DHT22;58294;42.988;20.338;2022-11-03T07:31:15;256.80;1792.00
70593;DHT22;58294;42.988;20.338;2022-11-03T07:33:42;281.60;1817.60
70593;DHT22;58294;42.988;20.338;2022-11-03T07:36:11;281.70;1792.00
70593;DHT22;58294;42.988;20.338;2022-11-03T07:38:38;281.90;1817.60
70593;DHT22;58294;42.988;20.338;2022-11-03T07:41:04;282.10;1792.00
70593;DHT22;58294;42.988;20.338;2022-11-03T07:43:33;282.20;1817.60
70593;DHT22;58294;42.988;20.338;2022-11-03T07:46:01;282.30;1792.00
70593;DHT22;58294;42.988;20.338;2022-11-03T07:51:22;307.20;1792.00
70593;DHT22;58294;42.988;20.338;2022-11-03T07:53:51;307.40;1792.00
70593;DHT22;58294;42.988;20.338;2022-11-03T07:56:26;307.50;1766.40
70593;DHT22;58294;42.988;20.338;2022-11-03T07:58:59;307.60;1740.80
70593;DHT22;58294;42.988;20.338;2022-11-03T08:01:28;307.70;1740.80
70593;DHT22;58294;42.988;20.338;2022-11-03T08:03:57;307.70;1740.80
70593;DHT22;58294;42.988;20.338;2022-11-03T08:06:25;307.80;1766.40
70593;DHT22;58294;42.988;20.338;2022-11-03T08:08:50;307.90;1792.00
70593;DHT22;58294;42.988;20.338;2022-11-03T08:11:16;308.10;1792.00
70593;DHT22;58294;42.988;20.338;2022-11-03T08:13:42;332.80;1792.00
70593;DHT22;58294;42.988;20.338;2022-11-03T08:16:09;332.90;1792.00
70593;DHT22;58294;42.988;20.338;2022-11-03T08:18:34;333.00;1766.40
70593;DHT22;58294;42.988;20.338;2022-11-03T08:21:01;333.20;1792.00
70593;DHT22;58294;42.988;20.338;2022-11-03T08:23:27;333.30;1792.00
70593;DHT22;58294;42.988;20.338;2022-11-03T08:25:53;333.40;1792.00
70593;DHT22;58294;42.988;20.338;2022-11-03T08:28:19;333.60;1766.40
70593;DHT22;58294;42.988;20.338;2022-11-03T08:30:44;333.70;1792.00
70593;DHT22;58294;42.988;20.338;2022-11-03T08:33:10;358.50;1766.40
70593;DHT22;58294;42.988;20.338;2022-11-03T08:35:36;358.60;1740.80
70593;DHT22;58294;42.988;20.338;2022-11-03T08:38:02;358.70;1766.40
70593;DHT22;58294;42.988;20.338;2022-11-03T08:40:28;358.80;1740.80
70593;DHT22;58294;42.988;20.338;2022-11-03T08:42:53;358.90;1740.80
70593;DHT22;58294;42.988;20.338;2022-11-03T08:45:19;359.10;1740.80
70593;DHT22;58294;42.988;20.338;2022-11-03T08:47:45;359.20;1715.20
70593;DHT22;58294;42.988;20.338;2022-11-03T08:50:11;384.00;1715.20
70593;DHT22;58294;42.988;20.338;2022-11-03T08:52:36;384.20;1715.20
70593;DHT22;58294;42.988;20.338;2022-11-03T08:55:02;384.30;1715.20
70593;DHT22;58294;42.988;20.338;2022-11-03T08:57:28;384.50;1664.00
70593;DHT22;58294;42.988;20.338;2022-11-03T08:59:54;384.60;1689.60
70593;DHT22;58294;42.988;20.338;2022-11-03T09:02:20;384.70;1638.40
70593;DHT22;58294;42.988;20.338;2022-11-03T09:07:12;384.80;1664.00
70593;DHT22;58294;42.988;20.338;2022-11-03T09:09:38;409.60;1868.80
70593;DHT22;58294;42.988;20.338;2022-11-03T09:12:04;410.10;1971.20
70593;DHT22;58294;42.988;20.338;2022-11-03T09:14:30;410.00;1894.40
70593;DHT22;58294;42.988;20.338;2022-11-03T09:16:56;410.30;1868.80
70593;DHT22;58294;42.988;20.338;2022-11-03T09:19:21;410.50;1971.20
70593;DHT22;58294;42.988;20.338;2022-11-03T09:24:13;436.00;2355.20
70593;DHT22;58294;42.988;20.338;2022-11-03T09:26:39;461.20;2380.80
70593;DHT22;58294;42.988;20.338;2022-11-03T09:29:05;486.50;2380.80
70593;DHT22;58294;42.988;20.338;2022-11-03T09:31:30;487.20;2380.80
70593;DHT22;58294;42.988;20.338;2022-11-03T09:33:56;512.60;2380.80
70593;DHT22;58294;42.988;20.338;2022-11-03T09:36:22;537.90;2406.40
70593;DHT22;58294;42.988;20.338;2022-11-03T09:38:47;538.50;2406.40
70593;DHT22;58294;42.988;20.338;2022-11-03T09:41:13;563.50;2432.00
70593;DHT22;58294;42.988;20.338;2022-11-03T09:43:46;563.90;2432.00
70593;DHT22;58294;42.988;20.338;2022-11-03T09:46:12;588.90;2355.20
70593;DHT22;58294;42.988;20.338;2022-11-03T09:48:39;589.20;2201.60
70593;DHT22;58294;42.988;20.338;2022-11-03T09:51:08;589.60;2124.80
70593;DHT22;58294;42.988;20.338;2022-11-03T09:56:01;614.70;2176.00
70593;DHT22;58294;42.988;20.338;2022-11-03T09:58:27;614.90;1894.40
70593;DHT22;58294;42.988;20.338;2022-11-03T10:00:52;614.90;1612.80
70593;DHT22;58294;42.988;20.338;2022-11-03T10:03:18;615.10;1894.40
70593;DHT22;58294;42.988;20.338;2022-11-03T10:05:45;615.30;1689.60
70593;DHT22;58294;42.988;20.338;2022-11-03T10:08:33;640.50;1792.00
70593;DHT22;58294;42.988;20.338;2022-11-03T10:13:36;640.90;1664.00
70593;DHT22;58294;42.988;20.338;2022-11-03T10:16:05;640.80;1356.80
70593;DHT22;58294;42.988;20.338;2022-11-03T10:18:32;640.60;1228.80
70593;DHT22;58294;42.988;20.338;2022-11-03T10:21:03;640.30;1280.00
70593;DHT22;58294;42.988;20.338;2022-11-03T10:23:29;640.30;1331.20
70593;DHT22;58294;42.988;20.338;2022-11-03T10:26:13;640.30;1356.80
70593;DHT22;58294;42.988;20.338;2022-11-03T10:29:00;640.40;1408.00
70593;DHT22;58294;42.988;20.338;2022-11-03T10:31:35;640.70;1459.20
70593;DHT22;58294;42.988;20.338;2022-11-03T10:34:02;665.70;1536.00
70593;DHT22;58294;42.988;20.338;2022-11-03T10:36:33;666.00;1459.20
70593;DHT22;58294;42.988;20.338;2022-11-03T10:38:59;666.40;1408.00
70593;DHT22;58294;42.988;20.338;2022-11-03T10:41:55;666.40;1331.20
70593;DHT22;58294;42.988;20.338;2022-11-03T10:44:25;691.20;1408.00
70593;DHT22;58294;42.988;20.338;2022-11-03T10:47:00;691.20;1203.20
70593;DHT22;58294;42.988;20.338;2022-11-03T10:49:28;691.20;1280.00
70593;DHT22;58294;42.988;20.338;2022-11-03T10:52:13;691.30;1331.20
70593;DHT22;58294;42.988;20.338;2022-11-03T10:57:07;691.70;1177.60
70593;DHT22;58294;42.988;20.338;2022-11-03T10:59:35;691.60;1152.00
70593;DHT22;58294;42.988;20.338;2022-11-03T11:02:10;691.60;1177.60
70593;DHT22;58294;42.988;20.338;2022-11-03T11:07:19;666.50;1024.00
70593;DHT22;58294;42.988;20.338;2022-11-03T11:09:45;666.30;1024.00
70593;DHT22;58294;42.988;20.338;2022-11-03T11:12:15;665.90;1024.00
70593;DHT22;58294;42.988;20.338;2022-11-03T11:15:00;665.90;1100.80
70593;DHT22;58294;42.988;20.338;2022-11-03T11:17:46;666.00;1203.20
70593;DHT22;58294;42.988;20.338;2022-11-03T11:31:43;716.80;1254.40
70593;DHT22;58294;42.988;20.338;2022-11-03T11:39:41;716.80;1049.60
70593;DHT22;58294;42.988;20.338;2022-11-03T11:47:36;691.60;998.40
70593;DHT22;58294;42.988;20.338;2022-11-03T11:52:56;666.40;947.20
70593;DHT22;58294;42.988;20.338;2022-11-03T11:55:44;666.10;947.20
70593;DHT22;58294;42.988;20.338;2022-11-03T11:58:20;665.70;921.60
70593;DHT22;58294;42.988;20.338;2022-11-03T12:01:18;640.70;896.00
70593;DHT22;58294;42.988;20.338;2022-11-03T12:03:46;640.30;921.60
70593;DHT22;58294;42.988;20.338;2022-11-03T12:06:13;615.30;921.60
70593;DHT22;58294;42.988;20.338;2022-11-03T12:08:39;615.10;921.60
70593;DHT22;58294;42.988;20.338;2022-11-03T12:11:07;615.00;947.20
70593;DHT22;58294;42.988;20.338;2022-11-03T12:13:39;614.80;947.20
70593;DHT22;58294;42.988;20.338;2022-11-03T12:16:07;614.70;947.20
70593;DHT22;58294;42.988;20.338;2022-11-03T12:21:00;614.40;947.20
70593;DHT22;58294;42.988;20.338;2022-11-03T12:23:40;589.60;947.20
70593;DHT22;58294;42.988;20.338;2022-11-03T12:26:15;589.50;972.80
70593;DHT22;58294;42.988;20.338;2022-11-03T12:28:41;589.40;947.20
70593;DHT22;58294;42.988;20.338;2022-11-03T12:31:07;589.30;972.80
70593;DHT22;58294;42.988;20.338;2022-11-03T12:33:33;589.20;972.80
70593;DHT22;58294;42.988;20.338;2022-11-03T12:35:59;589.10;972.80
70593;DHT22;58294;42.988;20.338;2022-11-03T12:38:24;589.10;972.80
70593;DHT22;58294;42.988;20.338;2022-11-03T12:40:50;589.00;972.80
70593;DHT22;58294;42.988;20.338;2022-11-03T12:43:18;588.90;998.40
70593;DHT22;58294;42.988;20.338;2022-11-03T12:45:44;588.90;998.40
70593;DHT22;58294;42.988;20.338;2022-11-03T12:48:09;588.80;972.80
70593;DHT22;58294;42.988;20.338;2022-11-03T12:50:35;564.10;998.40
70593;DHT22;58294;42.988;20.338;2022-11-03T12:53:03;564.10;972.80
70593;DHT22;58294;42.988;20.338;2022-11-03T12:55:31;564.00;972.80
70593;DHT22;58294;42.988;20.338;2022-11-03T12:57:57;563.90;972.80
70593;DHT22;58294;42.988;20.338;2022-11-03T13:00:23;563.80;998.40
70593;DHT22;58294;42.988;20.338;2022-11-03T13:02:49;563.70;998.40
70593;DHT22;58294;42.988;20.338;2022-11-03T13:05:14;563.70;998.40
70593;DHT22;58294;42.988;20.338;2022-11-03T13:07:41;563.70;998.40
70593;DHT22;58294;42.988;20.338;2022-11-03T13:10:08;563.60;1024.00
70593;DHT22;58294;42.988;20.338;2022-11-03T13:12:34;563.60;1024.00
70593;DHT22;58294;42.988;20.338;2022-11-03T13:15:04;563.50;1024.00
70593;DHT22;58294;42.988;20.338;2022-11-03T13:17:30;563.50;1024.00
70593;DHT22;58294;42.988;20.338;2022-11-03T13:19:56;563.50;1024.00
70593;DHT22;58294;42.988;20.338;2022-11-03T13:22:21;563.40;1024.00
70593;DHT22;58294;42.988;20.338;2022-11-03T13:24:47;563.40;1024.00
70593;DHT22;58294;42.988;20.338;2022-11-03T13:27:13;563.30;1024.00
70593;DHT22;58294;42.988;20.338;2022-11-03T13:29:39;563.30;1024.00
70593;DHT22;58294;42.988;20.338;2022-11-03T13:32:06;563.20;1024.00
70593;DHT22;58294;42.988;20.338;2022-11-03T13:34:32;538.50;1024.00
70593;DHT22;58294;42.988;20.338;2022-11-03T13:36:58;538.50;1024.00
70593;DHT22;58294;42.988;20.338;2022-11-03T13:39:24;538.40;1024.00
70593;DHT22;58294;42.988;20.338;2022-11-03T13:41:50;538.30;1024.00
70593;DHT22;58294;42.988;20.338;2022-11-03T13:44:16;538.30;1024.00
70593;DHT22;58294;42.988;20.338;2022-11-03T13:46:41;538.20;1024.00
70593;DHT22;58294;42.988;20.338;2022-11-03T13:49:07;538.10;1024.00
70593;DHT22;58294;42.988;20.338;2022-11-03T13:51:33;538.00;1024.00
70593;DHT22;58294;42.988;20.338;2022-11-03T13:53:59;537.90;1024.00
70593;DHT22;58294;42.988;20.338;2022-11-03T13:56:25;537.80;1049.60
70593;DHT22;58294;42.988;20.338;2022-11-03T13:58:50;537.70;1049.60
70593;DHT22;58294;42.988;20.338;2022-11-03T14:01:16;537.70;1049.60
70593;DHT22;58294;42.988;20.338;2022-11-03T14:03:42;537.60;1049.60
70593;DHT22;58294;42.988;20.338;2022-11-03T14:06:08;537.60;1049.60
70593;DHT22;58294;42.988;20.338;2022-11-03T14:08:34;537.60;1049.60
70593;DHT22;58294;42.988;20.338;2022-11-03T14:10:59;537.60;1075.20
70593;DHT22;58294;42.988;20.338;2022-11-03T14:13:45;512.90;1024.00
70593;DHT22;58294;42.988;20.338;2022-11-03T14:16:11;512.80;1049.60
70593;DHT22;58294;42.988;20.338;2022-11-03T14:18:37;512.80;1049.60
70593;DHT22;58294;42.988;20.338;2022-11-03T14:21:02;512.80;1049.60
70593;DHT22;58294;42.988;20.338;2022-11-03T14:23:28;512.80;1049.60
70593;DHT22;58294;42.988;20.338;2022-11-03T14:25:54;512.70;1049.60
70593;DHT22;58294;42.988;20.338;2022-11-03T14:28:20;512.70;1049.60
70593;DHT22;58294;42.988;20.338;2022-11-03T14:30:45;512.60;1049.60
70593;DHT22;58294;42.988;20.338;2022-11-03T14:33:11;512.50;1075.20
70593;DHT22;58294;42.988;20.338;2022-11-03T14:35:37;512.40;1075.20
70593;DHT22;58294;42.988;20.338;2022-11-03T14:38:02;512.40;1075.20
70593;DHT22;58294;42.988;20.338;2022-11-03T14:40:28;512.30;1075.20
70593;DHT22;58294;42.988;20.338;2022-11-03T14:43:12;512.30;1075.20
70593;DHT22;58294;42.988;20.338;2022-11-03T14:45:38;512.30;1075.20
70593;DHT22;58294;42.988;20.338;2022-11-03T14:48:04;512.20;1075.20
70593;DHT22;58294;42.988;20.338;2022-11-03T14:50:30;512.00;1100.80
70593;DHT22;58294;42.988;20.338;2022-11-03T14:52:55;512.00;1100.80
70593;DHT22;58294;42.988;20.338;2022-11-03T14:55:21;487.30;1100.80
70593;DHT22;58294;42.988;20.338;2022-11-03T14:57:47;487.20;1100.80
70593;DHT22;58294;42.988;20.338;2022-11-03T15:07:31;487.10;1075.20
70593;DHT22;58294;42.988;20.338;2022-11-03T15:09:57;486.90;1100.80
70593;DHT22;58294;42.988;20.338;2022-11-03T15:14:49;486.70;1100.80
70593;DHT22;58294;42.988;20.338;2022-11-03T15:17:15;486.50;1100.80
70593;DHT22;58294;42.988;20.338;2022-11-03T15:19:41;486.40;1100.80
70593;DHT22;58294;42.988;20.338;2022-11-03T15:22:06;461.70;1100.80
70593;DHT22;58294;42.988;20.338;2022-11-03T15:24:32;461.60;1126.40
70593;DHT22;58294;42.988;20.338;2022-11-03T15:26:58;461.40;1126.40
70593;DHT22;58294;42.988;20.338;2022-11-03T15:29:24;461.30;1126.40
70593;DHT22;58294;42.988;20.338;2022-11-03T15:31:49;461.20;1152.00
70593;DHT22;58294;42.988;20.338;2022-11-03T15:34:15;461.20;1152.00
70593;DHT22;58294;42.988;20.338;2022-11-03T15:36:41;461.10;1152.00
70593;DHT22;58294;42.988;20.338;2022-11-03T15:39:07;461.00;1152.00
70593;DHT22;58294;42.988;20.338;2022-11-03T15:41:32;460.90;1152.00
70593;DHT22;58294;42.988;20.338;2022-11-03T15:43:59;460.80;1152.00
70593;DHT22;58294;42.988;20.338;2022-11-03T15:46:25;436.10;1152.00
70593;DHT22;58294;42.988;20.338;2022-11-03T15:48:51;436.00;1152.00
70593;DHT22;58294;42.988;20.338;2022-11-03T15:51:18;435.90;1152.00
70593;DHT22;58294;42.988;20.338;2022-11-03T15:53:44;435.80;1152.00
70593;DHT22;58294;42.988;20.338;2022-11-03T15:56:10;435.70;1152.00
70593;DHT22;58294;42.988;20.338;2022-11-03T15:58:36;435.60;1152.00
70593;DHT22;58294;42.988;20.338;2022-11-03T16:01:02;435.60;1152.00
70593;DHT22;58294;42.988;20.338;2022-11-03T16:03:28;435.50;1152.00
70593;DHT22;58294;42.988;20.338;2022-11-03T16:05:54;435.40;1177.60
70593;DHT22;58294;42.988;20.338;2022-11-03T16:08:20;435.20;1177.60
70593;DHT22;58294;42.988;20.338;2022-11-03T16:10:46;435.20;1177.60
70593;DHT22;58294;42.988;20.338;2022-11-03T16:13:11;410.50;1203.20
70593;DHT22;58294;42.988;20.338;2022-11-03T16:15:37;410.40;1177.60
70593;DHT22;58294;42.988;20.338;2022-11-03T16:18:03;410.30;1228.80
70593;DHT22;58294;42.988;20.338;2022-11-03T16:20:29;410.20;1203.20
70593;DHT22;58294;42.988;20.338;2022-11-03T16:22:55;410.10;1203.20
70593;DHT22;58294;42.988;20.338;2022-11-03T16:25:21;410.00;1228.80
70593;DHT22;58294;42.988;20.338;2022-11-03T16:27:47;410.00;1228.80
70593;DHT22;58294;42.988;20.338;2022-11-03T16:30:13;409.90;1228.80
70593;DHT22;58294;42.988;20.338;2022-11-03T16:32:38;409.80;1228.80
70593;DHT22;58294;42.988;20.338;2022-11-03T16:35:05;409.70;1254.40
70593;DHT22;58294;42.988;20.338;2022-11-03T16:37:30;409.70;1228.80
70593;DHT22;58294;42.988;20.338;2022-11-03T16:39:56;409.60;1228.80
70593;DHT22;58294;42.988;20.338;2022-11-03T16:42:22;409.60;1228.80
70593;DHT22;58294;42.988;20.338;2022-11-03T16:44:48;384.90;1228.80
70593;DHT22;58294;42.988;20.338;2022-11-03T16:47:13;384.80;1228.80
70593;DHT22;58294;42.988;20.338;2022-11-03T16:49:39;384.70;1254.40
70593;DHT22;58294;42.988;20.338;2022-11-03T16:52:07;384.70;1254.40
70593;DHT22;58294;42.988;20.338;2022-11-03T16:54:33;384.60;1228.80
70593;DHT22;58294;42.988;20.338;2022-11-03T16:56:59;384.50;1254.40
70593;DHT22;58294;42.988;20.338;2022-11-03T16:59:25;384.40;1254.40
70593;DHT22;58294;42.988;20.338;2022-11-03T17:01:51;384.40;1254.40
70593;DHT22;58294;42.988;20.338;2022-11-03T17:04:17;384.30;1254.40
70593;DHT22;58294;42.988;20.338;2022-11-03T17:06:43;384.20;1254.40
70593;DHT22;58294;42.988;20.338;2022-11-03T17:09:09;384.20;1280.00
70593;DHT22;58294;42.988;20.338;2022-11-03T17:11:38;384.20;1254.40
70593;DHT22;58294;42.988;20.338;2022-11-03T17:14:08;384.20;1280.00
70593;DHT22;58294;42.988;20.338;2022-11-03T17:16:38;384.10;1280.00
70593;DHT22;58294;42.988;20.338;2022-11-03T17:19:07;384.00;1254.40
70593;DHT22;58294;42.988;20.338;2022-11-03T17:21:33;384.00;1280.00
70593;DHT22;58294;42.988;20.338;2022-11-03T17:23:59;359.30;1280.00
70593;DHT22;58294;42.988;20.338;2022-11-03T17:26:51;359.20;1305.60
70593;DHT22;58294;42.988;20.338;2022-11-03T17:29:21;359.10;1280.00
70593;DHT22;58294;42.988;20.338;2022-11-03T17:31:49;359.10;1280.00
70593;DHT22;58294;42.988;20.338;2022-11-03T17:34:19;359.10;1280.00
70593;DHT22;58294;42.988;20.338;2022-11-03T17:36:46;359.00;1280.00
70593;DHT22;58294;42.988;20.338;2022-11-03T17:39:14;358.90;1305.60
70593;DHT22;58294;42.988;20.338;2022-11-03T17:41:41;358.90;1305.60
70593;DHT22;58294;42.988;20.338;2022-11-03T17:44:11;358.90;1331.20
70593;DHT22;58294;42.988;20.338;2022-11-03T17:46:37;358.90;1331.20
70593;DHT22;58294;42.988;20.338;2022-11-03T17:49:03;358.70;1331.20
70593;DHT22;58294;42.988;20.338;2022-11-03T17:51:29;358.70;1305.60
70593;DHT22;58294;42.988;20.338;2022-11-03T17:53:55;358.60;1331.20
70593;DHT22;58294;42.988;20.338;2022-11-03T17:56:24;358.60;1331.20
70593;DHT22;58294;42.988;20.338;2022-11-03T17:58:50;358.60;1331.20
70593;DHT22;58294;42.988;20.338;2022-11-03T18:01:21;358.50;1331.20
70593;DHT22;58294;42.988;20.338;2022-11-03T18:03:48;358.40;1331.20